Time;durP1;ratioP1;P1;durP2;ratioP2;P2;SDS_P1;SDS_P2;PMS_P1;PMS_P2;Temp;Humidity;BMP_temperature;BMP_pressure;BME280_temperature;BME280_humidity;BME280_pressure;Samples;Min_cycle;Max_cycle;Signal;HPM_P1;HPM_P2
2023/05/21 00:00:21;;;;;;;24.02;14.35;;;15.30;99.90;;;;;;5068227;28;20162;-73
2023/05/21 00:02:47;;;;;;;24.05;13.80;;;15.30;99.90;;;;;;5065576;28;20041;-73
2023/05/21 00:05:14;;;;;;;24.92;14.00;;;15.30;99.90;;;;;;5053739;28;20040;-73
2023/05/21 00:07:40;;;;;;;24.70;14.07;;;15.30;99.90;;;;;;5048851;28;20061;-73
2023/05/21 00:10:06;;;;;;;22.60;13.65;;;15.30;99.90;;;;;;5053373;28;20072;-73
2023/05/21 00:12:32;;;;;;;23.50;13.07;;;15.40;99.90;;;;;;5056552;28;20423;-73
2023/05/21 00:14:58;;;;;;;25.15;14.52;;;15.40;99.90;;;;;;5069577;28;20028;-73
2023/05/21 00:17:24;;;;;;;24.67;13.88;;;15.40;99.90;;;;;;5070892;28;20065;-73
2023/05/21 00:19:51;;;;;;;25.02;13.75;;;15.40;99.90;;;;;;5069237;28;20029;-74
2023/05/21 00:22:16;;;;;;;25.85;14.20;;;15.30;99.90;;;;;;5070307;28;20040;-74
2023/05/21 00:24:44;;;;;;;23.42;13.65;;;15.30;99.90;;;;;;5069162;28;20028;-74
2023/05/21 00:27:11;;;;;;;24.90;14.70;;;15.40;99.90;;;;;;5069967;28;20052;-73
2023/05/21 00:29:37;;;;;;;27.45;14.20;;;15.30;99.90;;;;;;5069680;28;20388;-74
2023/05/21 00:32:03;;;;;;;24.67;14.15;;;15.30;99.90;;;;;;5065555;28;20024;-73
2023/05/21 00:34:28;;;;;;;25.65;13.90;;;15.30;99.90;;;;;;5068785;28;20068;-73
2023/05/21 00:36:54;;;;;;;27.40;14.60;;;15.30;99.90;;;;;;5068911;28;20035;-73
2023/05/21 00:39:20;;;;;;;24.60;14.02;;;15.20;99.90;;;;;;5069593;28;20105;-73
2023/05/21 00:41:47;;;;;;;25.73;14.88;;;15.20;99.90;;;;;;5058672;28;20036;-73
2023/05/21 00:44:13;;;;;;;28.75;14.25;;;15.20;99.90;;;;;;5056959;28;21668;-73
2023/05/21 00:46:40;;;;;;;27.40;14.77;;;15.20;99.90;;;;;;5069606;28;20036;-74
2023/05/21 00:49:06;;;;;;;24.02;14.63;;;15.10;99.90;;;;;;5070139;28;20679;-73
2023/05/21 00:51:32;;;;;;;26.35;14.73;;;15.20;99.90;;;;;;5069280;28;20393;-73
2023/05/21 00:53:58;;;;;;;27.67;15.63;;;15.10;99.90;;;;;;5068280;28;20038;-73
2023/05/21 00:56:26;;;;;;;26.88;14.70;;;15.00;99.90;;;;;;5070304;28;20472;-73
2023/05/21 00:58:53;;;;;;;31.52;15.77;;;15.00;99.90;;;;;;5068220;28;20028;-73
2023/05/21 01:01:18;;;;;;;24.88;14.57;;;15.00;99.90;;;;;;5068966;28;20039;-73
2023/05/21 01:03:44;;;;;;;27.38;15.23;;;15.00;99.90;;;;;;5055349;28;20672;-74
2023/05/21 01:06:10;;;;;;;30.33;15.48;;;15.00;99.90;;;;;;5070203;28;20158;-73
2023/05/21 01:08:37;;;;;;;30.00;14.82;;;15.00;99.90;;;;;;5067814;28;20051;-73
2023/05/21 01:11:05;;;;;;;29.05;15.82;;;14.90;99.90;;;;;;5066593;28;20074;-73
2023/05/21 01:13:35;;;;;;;24.80;15.07;;;14.90;99.90;;;;;;5066173;28;20024;-73
2023/05/21 01:16:02;;;;;;;29.30;16.10;;;14.90;99.90;;;;;;5069023;28;20036;-73
2023/05/21 01:18:28;;;;;;;22.83;14.07;;;14.90;99.90;;;;;;5066901;28;20040;-73
2023/05/21 01:20:54;;;;;;;26.00;14.95;;;14.90;99.90;;;;;;5060326;28;20048;-73
2023/05/21 01:23:20;;;;;;;25.63;14.18;;;14.90;99.90;;;;;;5056025;28;20032;-73
2023/05/21 01:25:46;;;;;;;24.70;14.40;;;14.90;99.90;;;;;;5068357;28;20029;-73
2023/05/21 01:28:12;;;;;;;27.75;15.25;;;14.90;99.90;;;;;;5069726;28;20086;-73
2023/05/21 01:30:40;;;;;;;24.80;14.32;;;14.90;99.90;;;;;;5068030;28;20028;-73
2023/05/21 01:33:14;;;;;;;24.52;14.45;;;14.90;99.90;;;;;;5066684;28;20032;-74
2023/05/21 01:36:17;;;;;;;27.00;15.27;;;14.90;99.90;;;;;;5067915;28;20552;-73
2023/05/21 01:39:08;;;;;;;26.75;14.77;;;14.90;99.90;;;;;;5050408;28;20072;-73
2023/05/21 01:41:39;;;;;;;27.55;14.90;;;14.90;99.90;;;;;;5068406;28;20032;-73
2023/05/21 01:44:07;;;;;;;25.48;14.48;;;14.90;99.90;;;;;;5054982;28;20373;-73
2023/05/21 01:46:35;;;;;;;24.40;14.32;;;14.90;99.90;;;;;;5069027;28;20028;-73
2023/05/21 01:49:03;;;;;;;25.80;14.93;;;15.00;99.90;;;;;;5051792;28;20150;-74
2023/05/21 01:51:29;;;;;;;26.02;15.20;;;14.90;99.90;;;;;;5065518;28;20097;-74
2023/05/21 01:53:55;;;;;;;24.92;15.23;;;14.90;99.90;;;;;;5050466;28;20465;-74
2023/05/21 01:56:24;;;;;;;23.30;14.13;;;14.90;99.90;;;;;;5056958;28;20374;-74
2023/05/21 01:58:51;;;;;;;27.40;15.60;;;14.80;99.90;;;;;;5065361;28;20120;-73
2023/05/21 02:01:16;;;;;;;31.27;16.38;;;14.60;99.90;;;;;;5056787;28;20032;-73
2023/05/21 02:03:42;;;;;;;24.23;14.60;;;14.50;99.90;;;;;;5062517;28;20048;-73
2023/05/21 02:06:07;;;;;;;26.95;15.43;;;14.30;99.90;;;;;;5064571;28;20044;-73
2023/05/21 02:08:34;;;;;;;29.42;15.98;;;14.10;99.90;;;;;;5067216;28;20083;-73
2023/05/21 02:11:00;;;;;;;29.13;16.00;;;14.00;99.90;;;;;;5068069;28;20469;-73
2023/05/21 02:13:25;;;;;;;30.40;15.80;;;13.90;99.90;;;;;;5066097;28;20040;-73
2023/05/21 02:15:53;;;;;;;29.92;15.65;;;13.90;99.90;;;;;;5068279;28;20517;-73
2023/05/21 02:18:20;;;;;;;26.42;15.52;;;13.90;99.90;;;;;;5068633;28;20543;-73
2023/05/21 02:20:46;;;;;;;27.50;15.73;;;13.90;99.90;;;;;;5066410;28;20052;-73
2023/05/21 02:23:11;;;;;;;28.05;15.93;;;13.90;99.90;;;;;;5064872;28;20542;-73
2023/05/21 02:25:37;;;;;;;31.33;16.08;;;13.90;99.90;;;;;;5065586;28;20361;-73
2023/05/21 02:28:03;;;;;;;27.48;16.27;;;14.00;99.90;;;;;;5067785;28;20492;-73
2023/05/21 02:30:28;;;;;;;26.45;15.13;;;14.00;99.90;;;;;;5067335;28;20059;-73
2023/05/21 02:32:54;;;;;;;27.98;15.75;;;14.00;99.90;;;;;;5065939;28;20044;-73
2023/05/21 02:35:20;;;;;;;30.30;16.60;;;14.00;99.90;;;;;;5067651;28;20028;-73
2023/05/21 02:37:45;;;;;;;29.17;16.73;;;14.00;99.90;;;;;;5065075;28;20032;-73
2023/05/21 02:40:12;;;;;;;29.55;16.30;;;14.10;99.90;;;;;;5067096;28;20059;-73
2023/05/21 02:42:40;;;;;;;28.15;16.40;;;14.10;99.90;;;;;;5067795;28;20063;-73
2023/05/21 02:45:07;;;;;;;28.38;15.07;;;14.10;99.90;;;;;;5064716;28;20036;-73
2023/05/21 02:47:33;;;;;;;27.33;15.65;;;14.10;99.90;;;;;;5068818;28;20111;-73
2023/05/21 02:50:00;;;;;;;28.58;14.77;;;14.10;99.90;;;;;;5066717;28;20429;-73
2023/05/21 02:52:26;;;;;;;29.10;16.27;;;13.90;99.90;;;;;;5068261;28;20049;-73
2023/05/21 02:54:51;;;;;;;26.83;15.90;;;13.90;99.90;;;;;;5063583;28;20086;-73
2023/05/21 02:57:17;;;;;;;28.25;15.63;;;13.80;99.90;;;;;;5061337;28;20039;-73
2023/05/21 02:59:44;;;;;;;29.92;15.82;;;13.80;99.90;;;;;;5066013;28;20039;-73
2023/05/21 03:02:09;;;;;;;27.98;16.15;;;13.80;99.90;;;;;;5055387;28;20060;-73
2023/05/21 03:04:37;;;;;;;27.42;15.65;;;13.70;99.90;;;;;;5065945;28;20025;-73
2023/05/21 03:07:03;;;;;;;27.15;15.63;;;13.70;99.90;;;;;;5066319;28;20021;-73
2023/05/21 03:09:29;;;;;;;28.55;16.08;;;13.70;99.90;;;;;;5066598;28;20359;-73
2023/05/21 03:11:55;;;;;;;27.85;16.10;;;13.70;99.90;;;;;;5065434;28;20040;-73
2023/05/21 03:14:21;;;;;;;28.42;16.38;;;13.70;99.90;;;;;;5064971;28;20111;-73
2023/05/21 03:16:47;;;;;;;28.05;15.25;;;13.70;99.90;;;;;;5058110;28;20457;-74
2023/05/21 03:19:14;;;;;;;26.35;15.65;;;13.70;99.90;;;;;;5059216;28;20036;-73
2023/05/21 03:21:40;;;;;;;26.92;15.75;;;13.70;99.90;;;;;;5055879;28;20387;-73
2023/05/21 03:24:06;;;;;;;28.30;16.55;;;13.60;99.90;;;;;;5061439;28;20024;-74
2023/05/21 03:26:32;;;;;;;29.75;16.92;;;13.60;99.90;;;;;;5053613;28;20025;-74
2023/05/21 03:28:58;;;;;;;28.98;16.38;;;13.50;99.90;;;;;;5065095;28;20435;-73
2023/05/21 03:31:25;;;;;;;29.08;15.75;;;13.50;99.90;;;;;;5054825;28;20044;-74
2023/05/21 03:33:51;;;;;;;30.88;17.10;;;13.60;99.90;;;;;;5049507;28;20029;-73
2023/05/21 03:36:17;;;;;;;28.80;16.17;;;13.50;99.90;;;;;;5048697;28;20029;-74
2023/05/21 03:38:42;;;;;;;32.25;16.40;;;13.40;99.90;;;;;;5062892;28;20063;-73
2023/05/21 03:41:09;;;;;;;31.80;15.82;;;13.30;99.90;;;;;;5062228;28;20635;-74
2023/05/21 03:43:35;;;;;;;28.42;16.08;;;13.10;99.90;;;;;;5069540;28;20024;-73
2023/05/21 03:46:01;;;;;;;31.83;17.30;;;13.10;99.90;;;;;;5070697;28;20054;-73
2023/05/21 03:48:27;;;;;;;27.65;16.20;;;13.20;99.90;;;;;;5068319;28;20523;-73
2023/05/21 03:50:52;;;;;;;32.00;16.52;;;13.20;99.90;;;;;;5056459;28;20353;-73
2023/05/21 03:53:18;;;;;;;30.67;16.20;;;13.30;99.90;;;;;;5067128;28;20128;-73
2023/05/21 03:55:43;;;;;;;30.98;16.50;;;13.30;99.90;;;;;;5058768;28;20146;-74
2023/05/21 03:58:09;;;;;;;27.42;15.80;;;13.30;99.90;;;;;;5064408;28;20043;-74
2023/05/21 04:00:36;;;;;;;31.65;16.63;;;13.30;99.90;;;;;;5064973;28;20032;-74
2023/05/21 04:03:05;;;;;;;30.13;16.50;;;13.30;99.90;;;;;;5062483;28;20086;-74
2023/05/21 04:05:32;;;;;;;30.67;16.33;;;13.30;99.90;;;;;;5064431;28;20070;-74
2023/05/21 04:07:58;;;;;;;31.58;16.63;;;13.20;99.90;;;;;;5057815;28;20025;-74
2023/05/21 04:10:25;;;;;;;36.70;16.70;;;13.10;99.90;;;;;;5063974;28;20064;-73
2023/05/21 04:12:51;;;;;;;32.58;16.95;;;12.80;99.90;;;;;;5059127;28;20028;-74
2023/05/21 04:15:17;;;;;;;28.90;15.90;;;12.70;99.90;;;;;;5057687;28;20040;-74
2023/05/21 04:17:44;;;;;;;34.10;17.23;;;12.70;99.90;;;;;;5063457;28;20032;-73
2023/05/21 04:20:12;;;;;;;30.27;16.63;;;12.80;99.90;;;;;;5062556;28;20044;-73
2023/05/21 04:22:38;;;;;;;27.20;15.98;;;13.00;99.90;;;;;;5065065;28;20480;-73
2023/05/21 04:25:04;;;;;;;28.15;15.60;;;13.10;99.90;;;;;;5061331;28;20116;-73
2023/05/21 04:27:30;;;;;;;34.45;16.27;;;13.20;99.90;;;;;;5068816;28;20483;-70
2023/05/21 04:29:56;;;;;;;29.40;16.05;;;13.30;99.90;;;;;;5056006;28;20119;-71
2023/05/21 04:32:22;;;;;;;28.20;15.95;;;13.40;99.90;;;;;;5056923;28;20112;-72
2023/05/21 04:34:48;;;;;;;29.83;15.70;;;13.40;99.90;;;;;;5062708;28;20111;-74
2023/05/21 04:37:16;;;;;;;30.98;16.55;;;13.50;99.90;;;;;;5051631;28;20029;-73
2023/05/21 04:39:42;;;;;;;28.63;15.80;;;13.60;99.90;;;;;;5063844;28;20033;-72
2023/05/21 04:42:09;;;;;;;27.85;15.20;;;13.60;99.90;;;;;;5064092;28;20016;-72
2023/05/21 04:44:36;;;;;;;30.48;16.00;;;13.50;99.90;;;;;;5056358;28;20040;-72
2023/05/21 04:47:02;;;;;;;29.00;16.35;;;13.50;99.90;;;;;;5061774;28;20029;-72
2023/05/21 04:49:28;;;;;;;28.35;15.70;;;13.50;99.90;;;;;;5068278;28;20040;-71
2023/05/21 04:51:54;;;;;;;31.50;16.35;;;13.60;99.90;;;;;;5067374;28;20047;-72
2023/05/21 04:54:20;;;;;;;28.02;16.02;;;13.60;99.90;;;;;;5057087;28;20028;-71
2023/05/21 04:56:46;;;;;;;27.75;15.27;;;13.60;99.90;;;;;;5059543;28;20120;-72
2023/05/21 04:59:12;;;;;;;27.80;16.10;;;13.60;99.90;;;;;;5067686;28;20492;-72
2023/05/21 05:01:38;;;;;;;29.33;16.15;;;13.50;99.90;;;;;;5069868;28;20540;-72
2023/05/21 05:04:04;;;;;;;27.70;15.57;;;13.50;99.90;;;;;;5069380;28;20112;-72
2023/05/21 05:06:30;;;;;;;25.75;15.40;;;13.50;99.90;;;;;;5068681;28;20055;-72
2023/05/21 05:08:56;;;;;;;30.42;16.27;;;13.60;99.90;;;;;;5069222;28;20033;-72
2023/05/21 05:11:22;;;;;;;25.48;15.18;;;13.60;99.90;;;;;;5069677;28;20532;-72
2023/05/21 05:13:47;;;;;;;26.98;15.57;;;13.70;99.90;;;;;;5069989;28;20020;-72
2023/05/21 05:16:16;;;;;;;28.02;15.85;;;13.80;99.90;;;;;;5069071;28;20060;-73
2023/05/21 05:18:41;;;;;;;29.40;15.77;;;13.90;99.90;;;;;;5069662;28;20035;-72
2023/05/21 05:21:07;;;;;;;25.50;14.85;;;14.00;99.90;;;;;;5068964;28;20025;-72
2023/05/21 05:23:33;;;;;;;29.73;16.25;;;14.10;99.90;;;;;;5069751;28;20032;-72
2023/05/21 05:25:58;;;;;;;27.38;14.80;;;14.10;99.90;;;;;;5068869;28;20068;-72
2023/05/21 05:28:24;;;;;;;26.23;14.75;;;14.00;99.90;;;;;;5069279;28;20118;-72
2023/05/21 05:30:50;;;;;;;29.02;15.18;;;14.00;99.90;;;;;;5067972;28;20031;-73
2023/05/21 05:33:15;;;;;;;26.20;14.85;;;14.00;99.90;;;;;;5067529;28;20472;-72
2023/05/21 05:35:41;;;;;;;26.35;14.88;;;14.20;99.90;;;;;;5069478;28;20037;-72
2023/05/21 05:38:07;;;;;;;26.58;14.80;;;14.30;99.90;;;;;;5068414;28;20028;-72
2023/05/21 05:40:33;;;;;;;28.65;14.80;;;14.40;99.90;;;;;;5069487;28;20370;-72
2023/05/21 05:42:59;;;;;;;30.13;14.80;;;14.50;99.90;;;;;;5068610;28;20115;-73
2023/05/21 05:45:25;;;;;;;23.20;13.52;;;14.60;99.90;;;;;;5069222;28;20587;-72
2023/05/21 05:47:54;;;;;;;22.13;13.70;;;14.70;99.90;;;;;;5069356;28;20128;-73
2023/05/21 05:50:19;;;;;;;22.70;13.85;;;14.80;99.90;;;;;;5069098;28;20052;-72
2023/05/21 05:52:45;;;;;;;25.67;13.95;;;14.90;99.90;;;;;;5069294;28;20021;-72
2023/05/21 05:55:11;;;;;;;23.45;13.25;;;14.90;99.90;;;;;;5068396;28;20024;-72
2023/05/21 05:57:37;;;;;;;22.95;12.95;;;15.00;99.90;;;;;;5068849;28;20028;-72
2023/05/21 06:00:08;;;;;;;25.27;13.68;;;15.10;99.90;;;;;;5068191;28;20036;-72
2023/05/21 06:02:33;;;;;;;21.70;13.00;;;15.30;99.90;;;;;;5067387;28;20147;-72
2023/05/21 06:04:59;;;;;;;25.80;13.73;;;15.30;99.90;;;;;;5068063;28;20123;-72
2023/05/21 06:07:25;;;;;;;22.17;13.57;;;15.40;99.90;;;;;;5068988;28;20032;-72
2023/05/21 06:09:50;;;;;;;23.63;13.43;;;15.40;99.90;;;;;;5067577;28;20054;-72
2023/05/21 06:12:16;;;;;;;24.70;13.63;;;15.40;99.90;;;;;;5068110;28;20029;-72
2023/05/21 06:14:44;;;;;;;21.63;12.38;;;15.40;99.90;;;;;;5068961;28;20031;-72
2023/05/21 06:17:10;;;;;;;23.40;12.90;;;15.50;99.90;;;;;;5068098;28;20382;-72
2023/05/21 06:19:35;;;;;;;25.83;13.23;;;15.60;99.90;;;;;;5068858;28;20035;-72
2023/05/21 06:22:01;;;;;;;21.73;12.70;;;15.60;99.90;;;;;;5068021;28;20376;-72
2023/05/21 06:24:27;;;;;;;24.05;12.75;;;15.60;99.90;;;;;;5068722;28;20020;-72
2023/05/21 06:26:52;;;;;;;23.17;12.50;;;15.70;99.90;;;;;;5067260;28;20582;-73
2023/05/21 06:29:18;;;;;;;20.33;12.10;;;15.80;99.90;;;;;;5068068;28;20040;-72
2023/05/21 06:31:43;;;;;;;22.25;12.50;;;15.90;99.90;;;;;;5068776;28;20535;-72
2023/05/21 06:34:10;;;;;;;20.60;12.57;;;15.90;99.90;;;;;;5067653;28;20503;-72
2023/05/21 06:36:36;;;;;;;20.50;12.57;;;16.00;99.90;;;;;;5068706;28;20090;-72
2023/05/21 06:39:02;;;;;;;18.20;11.68;;;16.00;99.90;;;;;;5067908;28;20474;-72
2023/05/21 06:41:27;;;;;;;17.83;11.13;;;16.10;99.90;;;;;;5068614;28;20035;-72
2023/05/21 06:43:53;;;;;;;19.08;11.32;;;16.10;99.90;;;;;;5068525;28;20105;-72
2023/05/21 06:46:19;;;;;;;20.83;11.95;;;16.20;99.90;;;;;;5067925;28;20028;-72
2023/05/21 06:48:45;;;;;;;18.42;11.52;;;16.30;99.90;;;;;;5068447;28;20087;-72
2023/05/21 06:51:11;;;;;;;18.88;10.85;;;16.40;99.90;;;;;;5067737;28;20036;-72
2023/05/21 06:53:37;;;;;;;18.90;10.77;;;16.50;99.90;;;;;;5068580;28;20040;-72
2023/05/21 06:56:03;;;;;;;19.08;10.85;;;16.50;99.90;;;;;;5067834;28;20377;-72
2023/05/21 06:58:30;;;;;;;23.45;10.82;;;16.60;99.90;;;;;;5068278;28;20501;-72
2023/05/21 07:00:56;;;;;;;18.90;10.63;;;16.60;99.90;;;;;;5068217;28;20115;-73
2023/05/21 07:03:22;;;;;;;18.85;11.18;;;16.70;99.90;;;;;;5067654;28;20131;-72
2023/05/21 07:05:48;;;;;;;18.83;10.77;;;16.80;99.90;;;;;;5068388;28;20441;-72
2023/05/21 07:08:13;;;;;;;20.23;10.85;;;16.80;99.90;;;;;;5067444;28;20039;-72
2023/05/21 07:10:41;;;;;;;18.13;10.43;;;16.80;99.90;;;;;;5068384;28;20086;-72
2023/05/21 07:13:07;;;;;;;22.42;11.27;;;16.80;99.90;;;;;;5067314;28;20413;-72
2023/05/21 07:15:33;;;;;;;18.42;10.63;;;16.90;99.90;;;;;;5068253;28;20107;-72
2023/05/21 07:17:58;;;;;;;17.75;11.02;;;16.90;99.90;;;;;;5070436;28;20032;-73
2023/05/21 07:20:24;;;;;;;17.95;10.10;;;17.00;99.90;;;;;;5071921;28;20448;-72
2023/05/21 07:22:50;;;;;;;18.73;10.60;;;17.10;99.90;;;;;;5072107;28;20024;-72
2023/05/21 07:25:15;;;;;;;19.17;11.10;;;17.10;99.90;;;;;;5071307;28;20071;-72
2023/05/21 07:27:41;;;;;;;16.95;10.90;;;17.20;99.90;;;;;;5070623;28;20036;-72
2023/05/21 07:30:08;;;;;;;20.45;11.40;;;17.20;99.90;;;;;;5071045;28;20158;-72
2023/05/21 07:32:34;;;;;;;16.38;10.23;;;17.20;99.90;;;;;;5070520;28;20028;-72
2023/05/21 07:35:02;;;;;;;19.60;10.75;;;17.20;99.90;;;;;;5071412;28;20437;-73
2023/05/21 07:37:28;;;;;;;17.85;10.48;;;17.30;99.90;;;;;;5071748;28;20097;-72
2023/05/21 07:39:57;;;;;;;16.63;10.10;;;17.40;99.90;;;;;;5071844;28;20358;-72
2023/05/21 07:42:23;;;;;;;17.67;10.52;;;17.40;99.90;;;;;;5071261;28;20142;-72
2023/05/21 07:44:48;;;;;;;19.98;11.07;;;17.50;99.90;;;;;;5071785;28;20523;-72
2023/05/21 07:47:14;;;;;;;19.67;10.80;;;17.60;99.90;;;;;;5070852;28;20041;-72
2023/05/21 07:49:40;;;;;;;18.05;10.45;;;17.70;99.90;;;;;;5071556;28;20064;-72
2023/05/21 07:52:05;;;;;;;16.73;9.55;;;17.70;99.90;;;;;;5070850;28;20560;-73
2023/05/21 07:54:31;;;;;;;17.77;9.95;;;17.80;99.90;;;;;;5071616;28;20064;-72
2023/05/21 07:56:57;;;;;;;15.30;9.80;;;17.90;99.90;;;;;;5071487;28;20035;-72
2023/05/21 07:59:23;;;;;;;21.05;9.20;;;18.00;99.90;;;;;;5070817;28;20469;-72
2023/05/21 08:01:49;;;;;;;15.90;9.73;;;18.10;99.90;;;;;;5069609;28;20049;-72
2023/05/21 08:04:14;;;;;;;19.05;9.80;;;18.20;99.90;;;;;;5070432;28;20062;-72
2023/05/21 08:06:40;;;;;;;14.02;8.93;;;18.20;99.90;;;;;;5071383;28;20036;-72
2023/05/21 08:09:06;;;;;;;19.77;9.70;;;18.30;99.90;;;;;;5070605;28;20626;-73
2023/05/21 08:11:31;;;;;;;18.63;8.95;;;18.30;99.90;;;;;;5070898;28;20611;-72
2023/05/21 08:13:57;;;;;;;14.88;8.70;;;18.30;99.90;;;;;;5071246;28;20021;-72
2023/05/21 08:16:23;;;;;;;17.00;9.70;;;18.40;99.90;;;;;;5070245;28;20024;-72
2023/05/21 08:18:49;;;;;;;16.27;9.55;;;18.40;99.90;;;;;;5070877;28;20590;-72
2023/05/21 08:21:15;;;;;;;15.23;8.85;;;18.40;99.90;;;;;;5068677;28;20039;-72
2023/05/21 08:23:42;;;;;;;16.52;9.32;;;18.60;99.90;;;;;;5071025;28;20033;-73
2023/05/21 08:26:07;;;;;;;16.48;8.75;;;18.70;99.90;;;;;;5069980;28;20059;-72
2023/05/21 08:28:35;;;;;;;15.32;8.93;;;18.70;99.90;;;;;;5070814;28;20147;-72
2023/05/21 08:31:01;;;;;;;12.93;8.30;;;18.70;99.90;;;;;;5069090;28;20067;-73
2023/05/21 08:33:26;;;;;;;16.92;7.97;;;18.80;99.90;;;;;;5070106;28;20036;-72
2023/05/21 08:35:53;;;;;;;14.35;8.35;;;18.90;99.90;;;;;;5070704;28;20461;-72
2023/05/21 08:38:18;;;;;;;13.45;8.70;;;18.90;99.90;;;;;;5068240;28;20029;-72
2023/05/21 08:40:46;;;;;;;13.38;8.43;;;19.00;99.90;;;;;;5070638;28;20039;-73
2023/05/21 08:43:14;;;;;;;26.83;9.75;;;19.00;99.90;;;;;;5068377;28;20079;-73
2023/05/21 08:45:43;;;;;;;14.05;8.88;;;19.10;99.90;;;;;;5070589;28;20388;-72
2023/05/21 08:48:12;;;;;;;14.50;8.30;;;19.30;99.90;;;;;;5069410;28;20033;-73
2023/05/21 08:50:39;;;;;;;14.55;8.70;;;19.40;99.90;;;;;;5070453;28;20028;-72
2023/05/21 08:53:04;;;;;;;15.45;8.95;;;19.50;99.90;;;;;;5069854;28;20028;-73
2023/05/21 08:55:31;;;;;;;15.70;8.40;;;19.60;99.90;;;;;;5068900;28;20036;-72
2023/05/21 08:57:57;;;;;;;13.68;8.43;;;19.80;99.90;;;;;;5070195;28;20431;-72
2023/05/21 09:00:23;;;;;;;14.00;8.90;;;19.80;99.90;;;;;;5069606;28;20032;-72
2023/05/21 09:02:53;;;;;;;13.55;8.68;;;19.80;99.90;;;;;;5068684;28;20060;-71
2023/05/21 09:05:19;;;;;;;15.57;9.02;;;19.90;99.90;;;;;;5069411;28;20083;-72
2023/05/21 09:07:59;;;;;;;13.30;8.85;;;19.90;99.90;;;;;;5069862;28;20835;-72
2023/05/21 09:10:32;;;;;;;16.13;8.55;;;20.10;99.90;;;;;;5067656;28;20043;-73
2023/05/21 09:12:58;;;;;;;13.10;8.05;;;20.20;99.90;;;;;;5069879;28;20102;-72
2023/05/21 09:15:25;;;;;;;14.63;8.73;;;20.30;99.90;;;;;;5067593;28;20052;-72
2023/05/21 09:17:51;;;;;;;14.38;8.65;;;20.50;99.90;;;;;;5069904;28;20052;-72
2023/05/21 09:20:17;;;;;;;16.95;8.60;;;20.60;99.90;;;;;;5067724;28;20420;-73
2023/05/21 09:22:47;;;;;;;12.18;7.72;;;20.60;99.90;;;;;;5068476;28;20361;-72
2023/05/21 09:25:16;;;;;;;;;;;20.70;99.90;;;;;;5069486;28;20064;-73
2023/05/21 09:27:43;;;;;;;12.10;7.72;;;20.70;99.90;;;;;;5068246;28;19908;-72
2023/05/21 09:30:16;;;;;;;15.38;9.07;;;20.80;99.90;;;;;;5068776;28;20481;-73
2023/05/21 09:32:43;;;;;;;12.00;7.78;;;20.80;99.90;;;;;;5069666;28;20033;-72
2023/05/21 09:35:11;;;;;;;15.15;8.70;;;20.90;99.90;;;;;;5068609;28;20063;-73
2023/05/21 09:37:47;;;;;;;14.32;8.63;;;20.90;99.90;;;;;;5069511;28;20029;-72
2023/05/21 09:40:18;;;;;;;16.13;8.52;;;21.10;99.90;;;;;;5068202;28;20477;-73
2023/05/21 09:42:47;;;;;;;;;;;21.20;99.90;;;;;;5068506;28;20124;-73
2023/05/21 09:45:26;;;;;;;11.73;7.57;;;21.30;99.90;;;;;;5067327;28;19915;-73
2023/05/21 09:47:54;;;;;;;14.68;8.57;;;21.50;99.90;;;;;;5069367;28;20566;-72
2023/05/21 09:50:26;;;;;;;14.18;8.18;;;21.50;99.90;;;;;;5068485;28;20047;-72
2023/05/21 09:52:54;;;;;;;15.70;8.90;;;21.40;99.90;;;;;;5069310;28;20078;-72
2023/05/21 09:55:24;;;;;;;13.35;8.45;;;21.40;99.90;;;;;;5068377;28;20024;-72
2023/05/21 09:57:51;;;;;;;15.77;9.13;;;21.40;99.90;;;;;;5067710;28;20388;-72
2023/05/21 10:00:22;;;;;;;24.13;12.77;;;21.40;99.90;;;;;;5066840;28;20040;-72
2023/05/21 10:02:52;;;;;;;12.50;8.18;;;21.30;99.90;;;;;;5068573;28;20091;-72
2023/05/21 10:05:19;;;;;;;14.70;8.23;;;21.30;99.90;;;;;;5066981;28;20044;-73
2023/05/21 10:07:50;;;;;;;24.77;13.18;;;21.30;99.90;;;;;;5069032;28;20110;-72
2023/05/21 10:10:21;;;;;;;16.25;8.98;;;21.30;99.90;;;;;;5068038;28;20548;-72
2023/05/21 10:12:58;;;;;;;14.68;8.13;;;21.50;99.90;;;;;;5069022;28;20024;-72
2023/05/21 10:15:25;;;;;;;12.52;8.52;;;21.50;99.90;;;;;;5067911;28;20051;-72
2023/05/21 10:17:51;;;;;;;17.20;9.10;;;21.50;99.90;;;;;;5068790;28;20119;-72
2023/05/21 10:20:17;;;;;;;11.30;7.95;;;21.20;99.90;;;;;;5068351;28;20421;-72
2023/05/21 10:22:43;;;;;;;13.90;8.15;;;21.20;99.90;;;;;;5068868;28;20063;-72
2023/05/21 10:25:11;;;;;;;14.13;8.25;;;21.10;99.90;;;;;;5068599;28;20028;-73
2023/05/21 10:27:38;;;;;;;14.88;8.18;;;21.10;99.90;;;;;;5068526;28;20401;-73
2023/05/21 10:30:05;;;;;;;16.83;8.13;;;21.20;99.90;;;;;;5067082;28;20131;-72
2023/05/21 10:32:32;;;;;;;12.13;8.25;;;21.30;99.90;;;;;;5067626;28;20682;-73
2023/05/21 10:34:58;;;;;;;13.15;8.32;;;21.30;99.90;;;;;;5068769;28;20033;-72
2023/05/21 10:37:27;;;;;;;14.38;8.38;;;21.50;99.90;;;;;;5067874;28;20024;-72
2023/05/21 10:39:54;;;;;;;12.07;8.15;;;21.60;99.90;;;;;;5068489;28;20111;-72
2023/05/21 10:42:32;;;;;;;12.05;7.70;;;21.70;99.90;;;;;;5067892;28;20029;-72
2023/05/21 10:45:39;;;;;;;19.90;8.93;;;22.00;99.90;;;;;;5068411;28;20027;-72
2023/05/21 10:48:15;;;;;;;14.10;8.43;;;22.10;99.90;;;;;;5068582;28;20037;-72
2023/05/21 10:50:58;;;;;;;23.02;9.13;;;22.20;99.90;;;;;;5067280;28;20051;-72
2023/05/21 10:53:59;;;;;;;15.32;9.07;;;22.20;99.90;;;;;;5071266;28;20029;-72
2023/05/21 10:56:37;;;;;;;12.40;8.18;;;22.20;99.90;;;;;;5068759;28;20127;-72
2023/05/21 10:59:42;;;;;;;16.70;9.00;;;22.30;99.90;;;;;;5072679;28;20449;-72
2023/05/21 11:02:10;;;;;;;12.73;8.30;;;22.30;99.90;;;;;;5069546;28;20048;-71
2023/05/21 11:04:38;;;;;;;15.85;9.30;;;22.20;99.90;;;;;;5072269;28;20044;-72
2023/05/21 11:07:04;;;;;;;15.25;8.82;;;22.40;99.90;;;;;;5072424;28;20040;-72
2023/05/21 11:09:31;;;;;;;13.40;8.27;;;22.50;99.90;;;;;;5071568;28;20547;-72
2023/05/21 11:11:57;;;;;;;16.52;9.15;;;22.70;99.90;;;;;;5072679;28;20029;-72
2023/05/21 11:14:34;;;;;;;13.18;8.85;;;22.80;99.90;;;;;;5071477;28;20025;-72
2023/05/21 11:17:08;;;;;;;19.17;9.02;;;22.70;99.90;;;;;;5071044;28;20024;-72
2023/05/21 11:19:42;;;;;;;12.57;8.77;;;22.90;99.90;;;;;;5071394;28;20032;-72
2023/05/21 11:22:23;;;;;;;12.10;8.35;;;23.30;99.90;;;;;;5070792;28;20050;-72
2023/05/21 11:24:50;;;;;;;13.73;8.85;;;23.30;99.00;;;;;;5072035;28;20032;-73
2023/05/21 11:27:36;;;;;;;13.88;8.60;;;23.10;99.40;;;;;;5071295;28;20086;-73
2023/05/21 11:30:07;;;;;;;14.15;8.63;;;23.10;99.90;;;;;;5071772;28;20381;-72
2023/05/21 11:33:12;;;;;;;15.50;8.82;;;23.10;99.90;;;;;;5070923;28;20175;-72
2023/05/21 11:35:44;;;;;;;13.75;8.60;;;23.20;99.90;;;;;;5069551;28;20032;-73
2023/05/21 11:38:09;;;;;;;16.85;9.30;;;23.30;99.90;;;;;;5070527;28;20032;-72
2023/05/21 11:40:35;;;;;;;16.20;8.68;;;23.20;99.70;;;;;;5069542;28;20578;-72
2023/05/21 11:43:01;;;;;;;15.07;9.05;;;23.10;99.90;;;;;;5071779;28;20024;-72
2023/05/21 11:45:31;;;;;;;15.20;9.20;;;23.20;99.90;;;;;;5070963;28;20452;-72
2023/05/21 11:47:57;;;;;;;;;;;23.50;99.90;;;;;;5072247;28;20453;-72
2023/05/21 11:50:24;;;;;;;14.77;8.85;;;23.40;99.90;;;;;;5070429;28;19923;-72
2023/05/21 11:52:51;;;;;;;15.02;9.00;;;23.50;99.70;;;;;;5070254;28;20540;-72
2023/05/21 11:55:23;;;;;;;14.07;9.25;;;23.60;99.90;;;;;;5070711;28;20032;-73
2023/05/21 11:57:52;;;;;;;14.02;9.00;;;23.40;99.90;;;;;;5071530;28;20035;-72
2023/05/21 12:00:17;;;;;;;13.93;8.52;;;23.20;99.90;;;;;;5069206;28;20051;-73
2023/05/21 12:02:48;;;;;;;20.10;9.57;;;23.10;99.90;;;;;;5070697;28;20060;-72
2023/05/21 12:05:13;;;;;;;;;;;23.10;99.90;;;;;;5071756;28;20032;-72
2023/05/21 12:07:39;;;;;;;13.50;8.75;;;23.20;99.90;;;;;;5070795;28;19915;-72
2023/05/21 12:10:05;;;;;;;17.13;9.32;;;23.40;99.90;;;;;;5069808;28;20080;-72
2023/05/21 12:12:31;;;;;;;15.65;8.70;;;23.50;99.90;;;;;;5070234;28;20025;-72
2023/05/21 12:14:57;;;;;;;14.98;9.27;;;23.60;99.90;;;;;;5071222;28;20381;-72
2023/05/21 12:17:25;;;;;;;17.08;9.55;;;23.80;99.90;;;;;;5070107;28;20527;-73
2023/05/21 12:19:52;;;;;;;14.27;9.25;;;23.90;99.90;;;;;;5071045;28;20028;-72
2023/05/21 12:22:18;;;;;;;12.57;8.88;;;24.00;99.90;;;;;;5070214;28;20039;-73
2023/05/21 12:24:45;;;;;;;13.32;9.45;;;24.30;99.90;;;;;;5070975;28;20037;-72
2023/05/21 12:27:12;;;;;;;14.35;9.48;;;24.50;99.90;;;;;;5070839;28;20381;-72
2023/05/21 12:29:44;;;;;;;13.32;9.05;;;24.70;99.90;;;;;;5070133;28;20633;-72
2023/05/21 12:32:12;;;;;;;14.23;9.30;;;24.80;99.90;;;;;;5070769;28;20037;-72